sensor_id;sensor_type;location;lat;lon;timestamp;P1;durP1;ratioP1;P2;durP2;ratioP2
59410;SDS011;45215;32.610;-115.482;2022-09-17T00:00:12;2.95;;;2.20;;
59410;SDS011;45215;32.610;-115.482;2022-09-17T00:02:39;3.35;;;2.30;;
59410;SDS011;45215;32.610;-115.482;2022-09-17T00:05:07;2.95;;;2.40;;
59410;SDS011;45215;32.610;-115.482;2022-09-17T00:07:34;3.90;;;2.10;;
59410;SDS011;45215;32.610;-115.482;2022-09-17T00:10:00;2.95;;;2.40;;
59410;SDS011;45215;32.610;-115.482;2022-09-17T00:12:27;2.75;;;2.05;;
59410;SDS011;45215;32.610;-115.482;2022-09-17T00:14:53;3.00;;;1.92;;
59410;SDS011;45215;32.610;-115.482;2022-09-17T00:17:19;2.30;;;1.80;;
59410;SDS011;45215;32.610;-115.482;2022-09-17T00:19:45;2.30;;;1.85;;
59410;SDS011;45215;32.610;-115.482;2022-09-17T00:22:12;3.90;;;2.25;;
59410;SDS011;45215;32.610;-115.482;2022-09-17T00:24:38;3.17;;;2.00;;
59410;SDS011;45215;32.610;-115.482;2022-09-17T00:27:04;2.10;;;1.75;;
59410;SDS011;45215;32.610;-115.482;2022-09-17T00:29:31;2.50;;;1.67;;
59410;SDS011;45215;32.610;-115.482;2022-09-17T00:31:58;3.70;;;1.98;;
59410;SDS011;45215;32.610;-115.482;2022-09-17T00:34:24;2.58;;;1.95;;
59410;SDS011;45215;32.610;-115.482;2022-09-17T00:36:50;1.70;;;1.60;;
59410;SDS011;45215;32.610;-115.482;2022-09-17T00:39:17;3.53;;;1.90;;
59410;SDS011;45215;32.610;-115.482;2022-09-17T00:41:43;4.13;;;1.80;;
59410;SDS011;45215;32.610;-115.482;2022-09-17T00:47:13;3.92;;;1.48;;
59410;SDS011;45215;32.610;-115.482;2022-09-17T00:50:02;4.10;;;1.77;;
59410;SDS011;45215;32.610;-115.482;2022-09-17T00:53:03;5.05;;;1.60;;
59410;SDS011;45215;32.610;-115.482;2022-09-17T00:55:36;2.65;;;1.52;;
59410;SDS011;45215;32.610;-115.482;2022-09-17T00:58:09;3.15;;;1.67;;
59410;SDS011;45215;32.610;-115.482;2022-09-17T01:00:39;2.05;;;1.42;;
59410;SDS011;45215;32.610;-115.482;2022-09-17T01:03:05;3.88;;;1.55;;
59410;SDS011;45215;32.610;-115.482;2022-09-17T01:08:20;2.08;;;1.45;;
59410;SDS011;45215;32.610;-115.482;2022-09-17T01:16:14;2.08;;;1.27;;
59410;SDS011;45215;32.610;-115.482;2022-09-17T01:21:55;2.33;;;1.45;;
59410;SDS011;45215;32.610;-115.482;2022-09-17T01:46:39;1.30;;;1.10;;
59410;SDS011;45215;32.610;-115.482;2022-09-17T01:49:10;3.75;;;1.25;;
59410;SDS011;45215;32.610;-115.482;2022-09-17T01:51:40;1.38;;;1.15;;
59410;SDS011;45215;32.610;-115.482;2022-09-17T01:56:45;3.30;;;1.35;;
59410;SDS011;45215;32.610;-115.482;2022-09-17T01:59:42;1.77;;;1.20;;
59410;SDS011;45215;32.610;-115.482;2022-09-17T02:04:47;2.33;;;1.20;;
59410;SDS011;45215;32.610;-115.482;2022-09-17T02:07:26;6.30;;;1.40;;
59410;SDS011;45215;32.610;-115.482;2022-09-17T02:09:59;3.72;;;1.30;;
59410;SDS011;45215;32.610;-115.482;2022-09-17T02:12:36;6.45;;;1.30;;
59410;SDS011;45215;32.610;-115.482;2022-09-17T02:15:09;2.05;;;1.30;;
59410;SDS011;45215;32.610;-115.482;2022-09-17T02:17:45;2.97;;;1.17;;
59410;SDS011;45215;32.610;-115.482;2022-09-17T02:20:34;3.47;;;1.40;;
59410;SDS011;45215;32.610;-115.482;2022-09-17T02:23:18;5.07;;;1.60;;
59410;SDS011;45215;32.610;-115.482;2022-09-17T02:25:51;4.53;;;1.50;;
59410;SDS011;45215;32.610;-115.482;2022-09-17T02:30:58;4.72;;;1.70;;
59410;SDS011;45215;32.610;-115.482;2022-09-17T02:33:24;3.50;;;1.23;;
59410;SDS011;45215;32.610;-115.482;2022-09-17T02:35:52;3.33;;;1.30;;
59410;SDS011;45215;32.610;-115.482;2022-09-17T02:38:25;4.97;;;1.20;;
59410;SDS011;45215;32.610;-115.482;2022-09-17T02:41:00;1.75;;;1.13;;
59410;SDS011;45215;32.610;-115.482;2022-09-17T02:43:49;3.80;;;1.40;;
59410;SDS011;45215;32.610;-115.482;2022-09-17T02:58:06;7.15;;;1.60;;
59410;SDS011;45215;32.610;-115.482;2022-09-17T03:00:47;3.83;;;1.40;;
59410;SDS011;45215;32.610;-115.482;2022-09-17T03:05:53;2.17;;;1.27;;
59410;SDS011;45215;32.610;-115.482;2022-09-17T03:08:26;3.15;;;1.50;;
59410;SDS011;45215;32.610;-115.482;2022-09-17T03:10:54;4.28;;;1.40;;
59410;SDS011;45215;32.610;-115.482;2022-09-17T03:13:20;2.85;;;1.40;;
59410;SDS011;45215;32.610;-115.482;2022-09-17T03:15:47;4.28;;;1.40;;
59410;SDS011;45215;32.610;-115.482;2022-09-17T03:18:13;3.25;;;1.42;;
59410;SDS011;45215;32.610;-115.482;2022-09-17T03:20:42;2.22;;;1.52;;
59410;SDS011;45215;32.610;-115.482;2022-09-17T03:23:08;2.83;;;1.50;;
59410;SDS011;45215;32.610;-115.482;2022-09-17T03:25:34;2.30;;;1.40;;
59410;SDS011;45215;32.610;-115.482;2022-09-17T03:28:00;2.53;;;1.70;;
59410;SDS011;45215;32.610;-115.482;2022-09-17T03:30:26;6.05;;;1.88;;
59410;SDS011;45215;32.610;-115.482;2022-09-17T03:32:53;3.20;;;1.80;;
59410;SDS011;45215;32.610;-115.482;2022-09-17T03:35:19;3.63;;;1.70;;
59410;SDS011;45215;32.610;-115.482;2022-09-17T03:37:45;2.45;;;1.55;;
59410;SDS011;45215;32.610;-115.482;2022-09-17T03:40:11;3.28;;;1.70;;
59410;SDS011;45215;32.610;-115.482;2022-09-17T03:42:38;2.95;;;1.70;;
59410;SDS011;45215;32.610;-115.482;2022-09-17T03:45:04;5.13;;;1.88;;
59410;SDS011;45215;32.610;-115.482;2022-09-17T03:47:31;3.97;;;1.90;;
59410;SDS011;45215;32.610;-115.482;2022-09-17T03:49:57;5.28;;;1.92;;
59410;SDS011;45215;32.610;-115.482;2022-09-17T03:52:23;3.50;;;1.88;;
59410;SDS011;45215;32.610;-115.482;2022-09-17T03:54:49;7.32;;;1.88;;
59410;SDS011;45215;32.610;-115.482;2022-09-17T03:57:15;5.25;;;1.88;;
59410;SDS011;45215;32.610;-115.482;2022-09-17T03:59:41;3.78;;;1.95;;
59410;SDS011;45215;32.610;-115.482;2022-09-17T04:02:08;2.95;;;2.10;;
59410;SDS011;45215;32.610;-115.482;2022-09-17T04:04:34;5.07;;;2.35;;
59410;SDS011;45215;32.610;-115.482;2022-09-17T04:07:00;4.55;;;2.00;;
59410;SDS011;45215;32.610;-115.482;2022-09-17T04:09:27;3.05;;;1.90;;
59410;SDS011;45215;32.610;-115.482;2022-09-17T04:11:53;4.47;;;2.25;;
59410;SDS011;45215;32.610;-115.482;2022-09-17T04:14:19;6.70;;;2.25;;
59410;SDS011;45215;32.610;-115.482;2022-09-17T04:16:45;5.85;;;2.47;;
59410;SDS011;45215;32.610;-115.482;2022-09-17T04:19:11;4.15;;;2.30;;
59410;SDS011;45215;32.610;-115.482;2022-09-17T04:21:38;3.55;;;2.20;;
59410;SDS011;45215;32.610;-115.482;2022-09-17T04:24:04;2.90;;;2.00;;
59410;SDS011;45215;32.610;-115.482;2022-09-17T04:26:30;3.55;;;2.13;;
59410;SDS011;45215;32.610;-115.482;2022-09-17T04:28:57;5.88;;;2.10;;
59410;SDS011;45215;32.610;-115.482;2022-09-17T04:31:23;4.78;;;2.20;;
59410;SDS011;45215;32.610;-115.482;2022-09-17T04:33:51;3.20;;;2.08;;
59410;SDS011;45215;32.610;-115.482;2022-09-17T04:36:18;2.55;;;2.10;;
59410;SDS011;45215;32.610;-115.482;2022-09-17T04:38:46;3.40;;;2.20;;
59410;SDS011;45215;32.610;-115.482;2022-09-17T04:41:13;3.92;;;1.73;;
59410;SDS011;45215;32.610;-115.482;2022-09-17T04:43:39;3.25;;;2.38;;
59410;SDS011;45215;32.610;-115.482;2022-09-17T04:46:05;3.20;;;2.30;;
59410;SDS011;45215;32.610;-115.482;2022-09-17T04:48:32;3.35;;;2.08;;
59410;SDS011;45215;32.610;-115.482;2022-09-17T04:50:58;5.18;;;2.35;;
59410;SDS011;45215;32.610;-115.482;2022-09-17T04:53:25;5.35;;;2.15;;
59410;SDS011;45215;32.610;-115.482;2022-09-17T04:55:51;3.08;;;2.33;;
59410;SDS011;45215;32.610;-115.482;2022-09-17T04:58:17;4.38;;;2.45;;
59410;SDS011;45215;32.610;-115.482;2022-09-17T05:00:43;3.92;;;2.33;;
59410;SDS011;45215;32.610;-115.482;2022-09-17T05:03:10;2.88;;;1.95;;
59410;SDS011;45215;32.610;-115.482;2022-09-17T05:05:36;4.20;;;2.40;;
59410;SDS011;45215;32.610;-115.482;2022-09-17T05:08:02;5.97;;;3.17;;
59410;SDS011;45215;32.610;-115.482;2022-09-17T05:10:29;67.10;;;19.15;;
59410;SDS011;45215;32.610;-115.482;2022-09-17T05:12:55;62.80;;;21.60;;
59410;SDS011;45215;32.610;-115.482;2022-09-17T05:15:22;97.07;;;35.15;;
59410;SDS011;45215;32.610;-115.482;2022-09-17T05:17:50;100.38;;;36.22;;
59410;SDS011;45215;32.610;-115.482;2022-09-17T05:20:17;87.03;;;33.85;;
59410;SDS011;45215;32.610;-115.482;2022-09-17T05:22:47;86.10;;;31.45;;
59410;SDS011;45215;32.610;-115.482;2022-09-17T05:25:16;78.85;;;28.67;;
59410;SDS011;45215;32.610;-115.482;2022-09-17T05:27:44;71.22;;;27.92;;
59410;SDS011;45215;32.610;-115.482;2022-09-17T05:30:11;71.43;;;26.88;;
59410;SDS011;45215;32.610;-115.482;2022-09-17T05:32:38;60.70;;;25.13;;
59410;SDS011;45215;32.610;-115.482;2022-09-17T05:35:05;59.72;;;24.10;;
59410;SDS011;45215;32.610;-115.482;2022-09-17T05:37:32;54.65;;;22.73;;
59410;SDS011;45215;32.610;-115.482;2022-09-17T05:39:58;52.45;;;21.17;;
59410;SDS011;45215;32.610;-115.482;2022-09-17T05:42:25;44.58;;;19.60;;
59410;SDS011;45215;32.610;-115.482;2022-09-17T05:44:51;49.47;;;18.77;;
59410;SDS011;45215;32.610;-115.482;2022-09-17T05:47:17;41.75;;;17.40;;
59410;SDS011;45215;32.610;-115.482;2022-09-17T05:49:43;41.25;;;17.25;;
59410;SDS011;45215;32.610;-115.482;2022-09-17T05:52:09;41.78;;;16.58;;
59410;SDS011;45215;32.610;-115.482;2022-09-17T05:54:35;36.05;;;16.33;;
59410;SDS011;45215;32.610;-115.482;2022-09-17T05:57:02;37.10;;;14.88;;
59410;SDS011;45215;32.610;-115.482;2022-09-17T05:59:28;28.17;;;13.13;;
59410;SDS011;45215;32.610;-115.482;2022-09-17T06:01:55;27.67;;;12.35;;
59410;SDS011;45215;32.610;-115.482;2022-09-17T06:04:21;28.50;;;13.05;;
59410;SDS011;45215;32.610;-115.482;2022-09-17T06:06:47;22.60;;;11.65;;
59410;SDS011;45215;32.610;-115.482;2022-09-17T06:09:13;24.25;;;11.15;;
59410;SDS011;45215;32.610;-115.482;2022-09-17T06:11:39;22.42;;;10.63;;
59410;SDS011;45215;32.610;-115.482;2022-09-17T06:14:07;23.90;;;10.65;;
59410;SDS011;45215;32.610;-115.482;2022-09-17T06:16:34;20.27;;;10.23;;
59410;SDS011;45215;32.610;-115.482;2022-09-17T06:19:00;22.60;;;10.13;;
59410;SDS011;45215;32.610;-115.482;2022-09-17T06:21:28;20.08;;;9.55;;
59410;SDS011;45215;32.610;-115.482;2022-09-17T06:23:54;16.48;;;8.70;;
59410;SDS011;45215;32.610;-115.482;2022-09-17T06:26:20;19.67;;;9.30;;
59410;SDS011;45215;32.610;-115.482;2022-09-17T06:28:47;16.98;;;8.40;;
59410;SDS011;45215;32.610;-115.482;2022-09-17T06:31:13;16.50;;;8.05;;
59410;SDS011;45215;32.610;-115.482;2022-09-17T06:33:39;16.60;;;8.45;;
59410;SDS011;45215;32.610;-115.482;2022-09-17T06:36:06;14.80;;;7.82;;
59410;SDS011;45215;32.610;-115.482;2022-09-17T06:38:36;14.50;;;7.53;;
59410;SDS011;45215;32.610;-115.482;2022-09-17T06:41:02;12.50;;;7.22;;
59410;SDS011;45215;32.610;-115.482;2022-09-17T06:43:29;13.27;;;7.10;;
59410;SDS011;45215;32.610;-115.482;2022-09-17T06:45:56;13.35;;;6.90;;
59410;SDS011;45215;32.610;-115.482;2022-09-17T06:48:24;12.40;;;7.03;;
59410;SDS011;45215;32.610;-115.482;2022-09-17T06:50:51;11.00;;;6.47;;
59410;SDS011;45215;32.610;-115.482;2022-09-17T06:53:21;12.27;;;6.97;;
59410;SDS011;45215;32.610;-115.482;2022-09-17T06:55:51;11.10;;;6.32;;
59410;SDS011;45215;32.610;-115.482;2022-09-17T06:58:21;9.73;;;6.22;;
59410;SDS011;45215;32.610;-115.482;2022-09-17T07:00:48;19.35;;;9.05;;
59410;SDS011;45215;32.610;-115.482;2022-09-17T07:03:14;53.42;;;20.05;;
59410;SDS011;45215;32.610;-115.482;2022-09-17T07:05:42;46.33;;;18.40;;
59410;SDS011;45215;32.610;-115.482;2022-09-17T07:08:09;40.85;;;15.73;;
59410;SDS011;45215;32.610;-115.482;2022-09-17T07:10:36;42.95;;;16.75;;
59410;SDS011;45215;32.610;-115.482;2022-09-17T07:13:02;43.47;;;15.98;;
59410;SDS011;45215;32.610;-115.482;2022-09-17T07:15:28;40.08;;;15.20;;
59410;SDS011;45215;32.610;-115.482;2022-09-17T07:17:55;33.50;;;13.50;;
59410;SDS011;45215;32.610;-115.482;2022-09-17T07:20:21;30.63;;;13.23;;
59410;SDS011;45215;32.610;-115.482;2022-09-17T07:22:53;26.98;;;12.30;;
59410;SDS011;45215;32.610;-115.482;2022-09-17T07:25:22;27.45;;;12.45;;
59410;SDS011;45215;32.610;-115.482;2022-09-17T07:27:51;22.83;;;11.25;;
59410;SDS011;45215;32.610;-115.482;2022-09-17T07:30:18;23.73;;;10.18;;
59410;SDS011;45215;32.610;-115.482;2022-09-17T07:32:45;22.63;;;9.73;;
59410;SDS011;45215;32.610;-115.482;2022-09-17T07:35:11;22.10;;;10.20;;
59410;SDS011;45215;32.610;-115.482;2022-09-17T07:37:38;24.85;;;10.50;;
59410;SDS011;45215;32.610;-115.482;2022-09-17T07:40:04;18.02;;;8.90;;
59410;SDS011;45215;32.610;-115.482;2022-09-17T07:42:33;20.17;;;9.05;;
59410;SDS011;45215;32.610;-115.482;2022-09-17T07:45:00;16.48;;;8.68;;
59410;SDS011;45215;32.610;-115.482;2022-09-17T07:47:26;18.50;;;8.60;;
59410;SDS011;45215;32.610;-115.482;2022-09-17T07:49:52;16.10;;;8.65;;
59410;SDS011;45215;32.610;-115.482;2022-09-17T07:52:18;16.75;;;7.97;;
59410;SDS011;45215;32.610;-115.482;2022-09-17T07:54:44;17.45;;;8.52;;
59410;SDS011;45215;32.610;-115.482;2022-09-17T07:57:10;16.00;;;8.07;;
59410;SDS011;45215;32.610;-115.482;2022-09-17T07:59:37;14.15;;;7.20;;
59410;SDS011;45215;32.610;-115.482;2022-09-17T08:02:03;15.35;;;7.85;;
59410;SDS011;45215;32.610;-115.482;2022-09-17T08:04:33;13.73;;;7.20;;
59410;SDS011;45215;32.610;-115.482;2022-09-17T08:06:59;15.13;;;7.78;;
59410;SDS011;45215;32.610;-115.482;2022-09-17T08:09:25;14.55;;;7.25;;
59410;SDS011;45215;32.610;-115.482;2022-09-17T08:11:52;12.93;;;6.63;;
59410;SDS011;45215;32.610;-115.482;2022-09-17T08:14:18;11.90;;;6.18;;
59410;SDS011;45215;32.610;-115.482;2022-09-17T08:16:44;12.60;;;6.63;;
59410;SDS011;45215;32.610;-115.482;2022-09-17T08:19:11;10.63;;;6.28;;
59410;SDS011;45215;32.610;-115.482;2022-09-17T08:21:37;13.27;;;6.95;;
59410;SDS011;45215;32.610;-115.482;2022-09-17T08:24:03;11.05;;;6.30;;
59410;SDS011;45215;32.610;-115.482;2022-09-17T08:26:30;10.90;;;6.20;;
59410;SDS011;45215;32.610;-115.482;2022-09-17T08:28:56;10.70;;;5.93;;
59410;SDS011;45215;32.610;-115.482;2022-09-17T08:31:24;11.00;;;5.50;;
59410;SDS011;45215;32.610;-115.482;2022-09-17T08:33:54;10.18;;;5.70;;
59410;SDS011;45215;32.610;-115.482;2022-09-17T08:36:21;9.93;;;5.43;;
59410;SDS011;45215;32.610;-115.482;2022-09-17T08:38:51;10.73;;;5.65;;
59410;SDS011;45215;32.610;-115.482;2022-09-17T08:41:20;9.93;;;5.45;;
59410;SDS011;45215;32.610;-115.482;2022-09-17T08:46:32;8.60;;;5.57;;
59410;SDS011;45215;32.610;-115.482;2022-09-17T08:54:32;6.60;;;4.88;;
59410;SDS011;45215;32.610;-115.482;2022-09-17T08:57:10;8.82;;;5.13;;
59410;SDS011;45215;32.610;-115.482;2022-09-17T09:00:09;8.77;;;4.55;;
59410;SDS011;45215;32.610;-115.482;2022-09-17T09:05:24;8.60;;;4.82;;
59410;SDS011;45215;32.610;-115.482;2022-09-17T09:08:10;7.13;;;4.65;;
59410;SDS011;45215;32.610;-115.482;2022-09-17T09:11:02;8.68;;;4.88;;
59410;SDS011;45215;32.610;-115.482;2022-09-17T09:13:42;6.70;;;4.25;;
59410;SDS011;45215;32.610;-115.482;2022-09-17T09:16:15;7.07;;;4.93;;
59410;SDS011;45215;32.610;-115.482;2022-09-17T09:18:50;6.43;;;4.30;;
59410;SDS011;45215;32.610;-115.482;2022-09-17T09:21:26;6.22;;;4.32;;
59410;SDS011;45215;32.610;-115.482;2022-09-17T09:26:50;6.93;;;4.22;;
59410;SDS011;45215;32.610;-115.482;2022-09-17T09:34:50;6.15;;;3.92;;
59410;SDS011;45215;32.610;-115.482;2022-09-17T09:37:22;6.63;;;3.85;;
59410;SDS011;45215;32.610;-115.482;2022-09-17T09:39:53;5.82;;;3.83;;
59410;SDS011;45215;32.610;-115.482;2022-09-17T09:42:31;6.03;;;3.90;;
59410;SDS011;45215;32.610;-115.482;2022-09-17T09:45:00;5.82;;;3.70;;
59410;SDS011;45215;32.610;-115.482;2022-09-17T09:52:56;5.07;;;3.47;;
59410;SDS011;45215;32.610;-115.482;2022-09-17T09:55:39;5.55;;;3.75;;
59410;SDS011;45215;32.610;-115.482;2022-09-17T09:58:39;5.63;;;4.15;;
59410;SDS011;45215;32.610;-115.482;2022-09-17T10:03:39;5.72;;;3.40;;
59410;SDS011;45215;32.610;-115.482;2022-09-17T10:06:07;4.43;;;3.47;;
59410;SDS011;45215;32.610;-115.482;2022-09-17T10:08:39;5.45;;;3.50;;
59410;SDS011;45215;32.610;-115.482;2022-09-17T10:13:45;4.90;;;3.30;;
59410;SDS011;45215;32.610;-115.482;2022-09-17T10:16:16;5.55;;;3.50;;
59410;SDS011;45215;32.610;-115.482;2022-09-17T10:18:49;4.85;;;3.15;;
59410;SDS011;45215;32.610;-115.482;2022-09-17T10:21:37;4.13;;;3.13;;
59410;SDS011;45215;32.610;-115.482;2022-09-17T10:24:11;4.20;;;2.72;;
59410;SDS011;45215;32.610;-115.482;2022-09-17T10:26:47;4.38;;;2.85;;
59410;SDS011;45215;32.610;-115.482;2022-09-17T10:29:15;3.85;;;2.78;;
59410;SDS011;45215;32.610;-115.482;2022-09-17T10:31:51;4.45;;;2.83;;
59410;SDS011;45215;32.610;-115.482;2022-09-17T10:34:28;3.88;;;2.80;;
59410;SDS011;45215;32.610;-115.482;2022-09-17T10:36:56;3.92;;;2.80;;
59410;SDS011;45215;32.610;-115.482;2022-09-17T10:41:52;3.53;;;2.80;;
59410;SDS011;45215;32.610;-115.482;2022-09-17T10:44:19;3.35;;;2.55;;
59410;SDS011;45215;32.610;-115.482;2022-09-17T10:46:47;4.22;;;2.92;;
59410;SDS011;45215;32.610;-115.482;2022-09-17T10:49:21;3.80;;;2.83;;
59410;SDS011;45215;32.610;-115.482;2022-09-17T10:52:03;4.32;;;2.72;;
59410;SDS011;45215;32.610;-115.482;2022-09-17T10:54:46;4.00;;;2.90;;
59410;SDS011;45215;32.610;-115.482;2022-09-17T11:00:19;3.58;;;2.75;;
59410;SDS011;45215;32.610;-115.482;2022-09-17T11:08:19;3.50;;;2.40;;
59410;SDS011;45215;32.610;-115.482;2022-09-17T11:10:59;3.28;;;2.60;;
59410;SDS011;45215;32.610;-115.482;2022-09-17T11:16:09;3.65;;;2.60;;
59410;SDS011;45215;32.610;-115.482;2022-09-17T11:27:22;2.92;;;2.20;;
59410;SDS011;45215;32.610;-115.482;2022-09-17T11:30:00;3.00;;;2.45;;
59410;SDS011;45215;32.610;-115.482;2022-09-17T11:33:20;3.45;;;2.90;;
59410;SDS011;45215;32.610;-115.482;2022-09-17T11:35:51;3.60;;;2.63;;
59410;SDS011;45215;32.610;-115.482;2022-09-17T11:38:28;3.80;;;2.60;;
59410;SDS011;45215;32.610;-115.482;2022-09-17T11:41:05;2.78;;;2.47;;
59410;SDS011;45215;32.610;-115.482;2022-09-17T11:43:43;3.83;;;2.63;;
59410;SDS011;45215;32.610;-115.482;2022-09-17T11:46:21;3.78;;;2.80;;
59410;SDS011;45215;32.610;-115.482;2022-09-17T11:49:01;3.85;;;3.08;;
59410;SDS011;45215;32.610;-115.482;2022-09-17T11:51:36;4.10;;;2.97;;
59410;SDS011;45215;32.610;-115.482;2022-09-17T11:54:23;4.72;;;3.10;;
59410;SDS011;45215;32.610;-115.482;2022-09-17T11:57:15;5.63;;;3.90;;
59410;SDS011;45215;32.610;-115.482;2022-09-17T12:05:33;6.60;;;4.40;;
59410;SDS011;45215;32.610;-115.482;2022-09-17T12:08:17;7.70;;;4.60;;
59410;SDS011;45215;32.610;-115.482;2022-09-17T12:14:00;8.10;;;4.85;;
59410;SDS011;45215;32.610;-115.482;2022-09-17T12:16:35;8.70;;;5.45;;
59410;SDS011;45215;32.610;-115.482;2022-09-17T12:21:53;8.35;;;5.50;;
59410;SDS011;45215;32.610;-115.482;2022-09-17T12:29:29;8.00;;;5.50;;
59410;SDS011;45215;32.610;-115.482;2022-09-17T12:34:56;9.18;;;5.50;;
59410;SDS011;45215;32.610;-115.482;2022-09-17T12:39:54;8.25;;;5.50;;
59410;SDS011;45215;32.610;-115.482;2022-09-17T12:42:28;9.05;;;5.38;;
59410;SDS011;45215;32.610;-115.482;2022-09-17T12:51:21;7.55;;;5.43;;
59410;SDS011;45215;32.610;-115.482;2022-09-17T12:54:09;8.23;;;5.25;;
59410;SDS011;45215;32.610;-115.482;2022-09-17T12:59:19;6.25;;;4.30;;
59410;SDS011;45215;32.610;-115.482;2022-09-17T13:21:14;5.47;;;3.97;;
59410;SDS011;45215;32.610;-115.482;2022-09-17T13:23:48;5.18;;;3.75;;
59410;SDS011;45215;32.610;-115.482;2022-09-17T13:26:17;4.50;;;3.40;;
59410;SDS011;45215;32.610;-115.482;2022-09-17T13:28:49;14.82;;;4.55;;
59410;SDS011;45215;32.610;-115.482;2022-09-17T13:31:49;5.93;;;3.58;;
59410;SDS011;45215;32.610;-115.482;2022-09-17T13:36:51;12.27;;;3.75;;
59410;SDS011;45215;32.610;-115.482;2022-09-17T13:45:04;7.20;;;3.45;;
59410;SDS011;45215;32.610;-115.482;2022-09-17T13:47:35;12.63;;;4.50;;
59410;SDS011;45215;32.610;-115.482;2022-09-17T13:50:23;8.32;;;4.13;;
59410;SDS011;45215;32.610;-115.482;2022-09-17T13:52:54;14.85;;;4.80;;
59410;SDS011;45215;32.610;-115.482;2022-09-17T13:55:36;11.07;;;4.38;;
59410;SDS011;45215;32.610;-115.482;2022-09-17T13:58:12;10.55;;;4.18;;
59410;SDS011;45215;32.610;-115.482;2022-09-17T14:00:56;11.35;;;3.75;;
59410;SDS011;45215;32.610;-115.482;2022-09-17T14:24:33;5.47;;;3.63;;
59410;SDS011;45215;32.610;-115.482;2022-09-17T14:27:05;8.98;;;4.00;;
59410;SDS011;45215;32.610;-115.482;2022-09-17T14:32:45;4.95;;;3.40;;
59410;SDS011;45215;32.610;-115.482;2022-09-17T14:35:23;6.85;;;3.40;;
59410;SDS011;45215;32.610;-115.482;2022-09-17T14:40:49;5.18;;;3.47;;
59410;SDS011;45215;32.610;-115.482;2022-09-17T14:46:33;6.88;;;3.60;;
59410;SDS011;45215;32.610;-115.482;2022-09-17T14:49:20;5.10;;;3.30;;
59410;SDS011;45215;32.610;-115.482;2022-09-17T14:51:49;5.73;;;3.20;;
59410;SDS011;45215;32.610;-115.482;2022-09-17T14:56:48;4.32;;;2.90;;
59410;SDS011;45215;32.610;-115.482;2022-09-17T15:02:26;4.68;;;2.60;;
59410;SDS011;45215;32.610;-115.482;2022-09-17T15:07:42;4.85;;;2.78;;
59410;SDS011;45215;32.610;-115.482;2022-09-17T15:10:11;3.42;;;2.70;;
59410;SDS011;45215;32.610;-115.482;2022-09-17T15:12:41;4.40;;;2.50;;
59410;SDS011;45215;32.610;-115.482;2022-09-17T15:15:18;3.40;;;2.60;;
59410;SDS011;45215;32.610;-115.482;2022-09-17T15:17:47;4.75;;;2.80;;
59410;SDS011;45215;32.610;-115.482;2022-09-17T15:20:22;3.20;;;2.60;;
59410;SDS011;45215;32.610;-115.482;2022-09-17T15:22:58;4.85;;;2.97;;
59410;SDS011;45215;32.610;-115.482;2022-09-17T15:25:29;3.35;;;2.40;;
59410;SDS011;45215;32.610;-115.482;2022-09-17T15:27:57;3.67;;;2.80;;
59410;SDS011;45215;32.610;-115.482;2022-09-17T15:30:29;3.80;;;2.60;;
59410;SDS011;45215;32.610;-115.482;2022-09-17T15:32:56;3.83;;;2.40;;
59410;SDS011;45215;32.610;-115.482;2022-09-17T15:35:25;7.75;;;2.47;;
59410;SDS011;45215;32.610;-115.482;2022-09-17T15:37:55;5.03;;;2.92;;
59410;SDS011;45215;32.610;-115.482;2022-09-17T15:40:31;3.95;;;2.35;;
59410;SDS011;45215;32.610;-115.482;2022-09-17T15:43:02;10.93;;;2.60;;
59410;SDS011;45215;32.610;-115.482;2022-09-17T15:48:54;9.43;;;2.47;;
59410;SDS011;45215;32.610;-115.482;2022-09-17T15:51:29;4.35;;;2.42;;
59410;SDS011;45215;32.610;-115.482;2022-09-17T15:53:57;5.82;;;3.47;;
59410;SDS011;45215;32.610;-115.482;2022-09-17T15:56:30;103.28;;;75.88;;
59410;SDS011;45215;32.610;-115.482;2022-09-17T15:59:03;313.90;;;261.80;;
59410;SDS011;45215;32.610;-115.482;2022-09-17T16:04:19;298.77;;;246.88;;
59410;SDS011;45215;32.610;-115.482;2022-09-17T16:12:24;229.73;;;190.93;;
59410;SDS011;45215;32.610;-115.482;2022-09-17T16:14:57;219.95;;;178.77;;
59410;SDS011;45215;32.610;-115.482;2022-09-17T16:20:12;202.82;;;159.80;;
59410;SDS011;45215;32.610;-115.482;2022-09-17T16:22:40;187.05;;;150.68;;
59410;SDS011;45215;32.610;-115.482;2022-09-17T16:25:07;171.55;;;140.20;;
59410;SDS011;45215;32.610;-115.482;2022-09-17T16:27:42;163.05;;;134.13;;
59410;SDS011;45215;32.610;-115.482;2022-09-17T16:30:15;153.77;;;129.18;;
59410;SDS011;45215;32.610;-115.482;2022-09-17T16:32:43;147.05;;;120.72;;
59410;SDS011;45215;32.610;-115.482;2022-09-17T16:35:11;139.32;;;115.10;;
59410;SDS011;45215;32.610;-115.482;2022-09-17T16:37:38;133.35;;;108.72;;
59410;SDS011;45215;32.610;-115.482;2022-09-17T16:40:05;124.10;;;102.97;;
59410;SDS011;45215;32.610;-115.482;2022-09-17T16:42:34;117.32;;;96.57;;
59410;SDS011;45215;32.610;-115.482;2022-09-17T16:45:00;111.07;;;91.35;;
59410;SDS011;45215;32.610;-115.482;2022-09-17T16:47:28;104.00;;;85.18;;
59410;SDS011;45215;32.610;-115.482;2022-09-17T16:50:02;95.50;;;79.50;;
59410;SDS011;45215;32.610;-115.482;2022-09-17T16:52:33;90.55;;;75.10;;
59410;SDS011;45215;32.610;-115.482;2022-09-17T16:54:59;84.80;;;71.40;;
59410;SDS011;45215;32.610;-115.482;2022-09-17T16:57:26;80.05;;;65.80;;
59410;SDS011;45215;32.610;-115.482;2022-09-17T16:59:57;79.13;;;63.33;;
59410;SDS011;45215;32.610;-115.482;2022-09-17T17:02:24;72.43;;;58.30;;
59410;SDS011;45215;32.610;-115.482;2022-09-17T17:04:50;67.90;;;55.05;;
59410;SDS011;45215;32.610;-115.482;2022-09-17T17:07:17;60.35;;;50.30;;
59410;SDS011;45215;32.610;-115.482;2022-09-17T17:09:43;59.78;;;46.88;;
59410;SDS011;45215;32.610;-115.482;2022-09-17T17:12:10;53.88;;;43.40;;
59410;SDS011;45215;32.610;-115.482;2022-09-17T17:14:36;51.28;;;42.50;;
59410;SDS011;45215;32.610;-115.482;2022-09-17T17:17:02;48.28;;;40.05;;
59410;SDS011;45215;32.610;-115.482;2022-09-17T17:19:29;44.30;;;35.47;;
59410;SDS011;45215;32.610;-115.482;2022-09-17T17:21:55;41.88;;;34.20;;
59410;SDS011;45215;32.610;-115.482;2022-09-17T17:24:22;42.30;;;32.40;;
59410;SDS011;45215;32.610;-115.482;2022-09-17T17:26:48;36.90;;;29.95;;
59410;SDS011;45215;32.610;-115.482;2022-09-17T17:29:15;34.38;;;28.08;;
59410;SDS011;45215;32.610;-115.482;2022-09-17T17:31:41;31.83;;;26.52;;
59410;SDS011;45215;32.610;-115.482;2022-09-17T17:34:07;29.92;;;24.15;;
59410;SDS011;45215;32.610;-115.482;2022-09-17T17:36:33;28.38;;;23.05;;
59410;SDS011;45215;32.610;-115.482;2022-09-17T17:39:00;28.27;;;22.15;;
59410;SDS011;45215;32.610;-115.482;2022-09-17T17:41:26;24.85;;;19.75;;
59410;SDS011;45215;32.610;-115.482;2022-09-17T17:43:53;27.13;;;18.77;;
59410;SDS011;45215;32.610;-115.482;2022-09-17T17:46:19;23.88;;;17.65;;
59410;SDS011;45215;32.610;-115.482;2022-09-17T17:48:47;20.27;;;15.50;;
59410;SDS011;45215;32.610;-115.482;2022-09-17T17:51:16;22.00;;;14.45;;
59410;SDS011;45215;32.610;-115.482;2022-09-17T17:53:43;19.67;;;15.02;;
59410;SDS011;45215;32.610;-115.482;2022-09-17T17:56:10;15.63;;;13.05;;
59410;SDS011;45215;32.610;-115.482;2022-09-17T17:58:38;14.80;;;11.48;;